Sheldon, North Dakota
Current Conditions -  °F | °C
As of 3:15 AM on Sunday 26 Oct 2014 (Local Time) from KGWR Reporting Station
Clear Clear  
Wind Chill: 36°   Ceiling: Unl
Heat Index: 41°   Visibility: 10mi
Dew Point: 32°   Wind: 8mph
Humidity: 70%   Direction: 150°SSE
Pressure: 29.95"   Gusts: NA
Location:  46.59°N, 97.49°W
Report Text: KGWR 260815Z AUTO 15007KT 10SM CLR 05/00 A2995 RMK A01 P000
Loading
Personal Weather Stations






























Interactive Weather Map
Tropical Storm Tracking
New forecast layout! Learn more

10-Day Weather Forecast

Advertisements
Track Severe Weather on mobile